Island Lookout — WDF6311 — position and weather

sailwx.info

Track history (hours):
 
Tides and Currents Weather Stations Pressure Air Temp Water Temp Dewpoint Dewpoint Depression Visibility Wind Speed Wind Dir Waves Ship Positions

Island Lookout

More information available from US FCC via Universal Licensing System and Coast Guard Vessel Documentation Center.

Last reported at 2014-Jul-30 08:33 UTC. Time now 2014-Jul-30 09:03 UTC.
Position N 39°07' W 076°24'.

Length 22 m; draft 2.9 m.

Type: Towing. MMSI: 367472930.

Date/timePositionNaut miles runAvg speedWind from/ knotsBaromVisibWave heightAir tempDewpointWater temp
2014-Jul-30 08:33N 39°07' W 076°24'6 6.2
2014-Jul-30 07:33N 39°01' W 076°23'6 6.3
2014-Jul-30 06:33N 38°55' W 076°25'115 6.7
2014-Jul-29 13:27N 36°60' W 076°18'  
2014-Jul-26 21:06N 36°53' W 076°20'8 5.1
2014-Jul-26 19:26N 37°01' W 076°16'126 6.0
2014-Jul-25 22:24N 39°07' W 076°24'5 6.0
2014-Jul-25 21:31N 39°11' W 076°28'3 2.7
2014-Jul-25 20:33N 39°13' W 076°31'3 3.3
2014-Jul-25 19:31N 39°13' W 076°35'0 0.0
2014-Jul-25 18:18N 39°13' W 076°35'0 0.0
2014-Jul-25 17:33N 39°13' W 076°35'0 0.0
2014-Jul-25 16:21N 39°13' W 076°35'0 0.0
2014-Jul-25 15:33N 39°13' W 076°35'0 0.0
2014-Jul-25 14:25N 39°13' W 076°35'0 0.4
2014-Jul-25 13:33N 39°12' W 076°35'0 0.0
2014-Jul-25 12:33N 39°12' W 076°35'0 0.0
2014-Jul-25 11:33N 39°12' W 076°35'0 0.0
2014-Jul-25 10:33N 39°12' W 076°35'0 0.0
2014-Jul-25 09:33N 39°12' W 076°35'0 0.0
2014-Jul-25 08:33N 39°12' W 076°35'0 0.0
2014-Jul-25 07:33N 39°12' W 076°35'0 0.0
2014-Jul-25 06:33N 39°12' W 076°35'0 0.0
2014-Jul-25 05:33N 39°12' W 076°35'0 0.0
2014-Jul-25 04:33N 39°12' W 076°35'0 0.0
2014-Jul-25 03:33N 39°12' W 076°35'0 0.0
2014-Jul-25 02:33N 39°12' W 076°35'0 0.0
2014-Jul-25 01:33N 39°12' W 076°35'0 0.0
2014-Jul-25 00:33N 39°12' W 076°35'0 0.0
2014-Jul-24 23:33N 39°12' W 076°35'0 0.0
2014-Jul-24 22:33N 39°12' W 076°35'0 0.0
2014-Jul-24 21:33N 39°12' W 076°35'0 0.1
2014-Jul-24 20:33N 39°12' W 076°35'0 0.0
2014-Jul-24 19:33N 39°12' W 076°35'0 0.0
2014-Jul-24 18:33N 39°12' W 076°35'1 0.8
2014-Jul-24 17:33N 39°13' W 076°35'3 2.9
2014-Jul-24 16:33N 39°16' W 076°34'5 4.5
2014-Jul-24 15:33N 39°13' W 076°30'5 5.5
2014-Jul-24 14:33N 39°09' W 076°25'6 5.9
2014-Jul-24 13:31N 39°03' W 076°23'6 5.8
2014-Jul-24 12:33N 38°58' W 076°24'7 6.3
2014-Jul-24 11:30N 38°51' W 076°26'95 7.3
2014-Jul-23 22:28N 37°17' W 076°11'7 7.3
2014-Jul-23 21:33N 37°10' W 076°12'7 6.9
2014-Jul-23 20:30N 37°03' W 076°14'6 6.3
2014-Jul-23 19:33N 36°59' W 076°19'7 6.5
2014-Jul-23 18:32N 36°53' W 076°20'7 5.2
2014-Jul-23 17:15N 36°46' W 076°18'39 1.2
2014-Jul-22 08:31N 36°12' W 075°55'5 4.9
2014-Jul-22 07:31N 36°16' W 075°58'36 3.3
2014-Jul-21 20:20N 36°49' W 076°17'0 1.5
2014-Jul-21 20:08N 36°49' W 076°17'4 5.8
2014-Jul-21 19:28N 36°52' W 076°20'6 6.5
2014-Jul-21 18:29N 36°59' W 076°20'6 6.3
2014-Jul-21 17:33N 37°03' W 076°14'7 6.8
2014-Jul-21 16:32N 37°10' W 076°12'111 6.1
2014-Jul-20 22:28N 39°00' W 076°23'6 6.3
2014-Jul-20 21:30N 39°06' W 076°24'5 5.6
2014-Jul-20 20:33N 39°11' W 076°27'6 5.8
2014-Jul-20 19:33N 39°13' W 076°34'1 1.2
2014-Jul-20 18:34N 39°12' W 076°35'0 0.0
2014-Jul-20 17:33N 39°12' W 076°35'0 0.0
2014-Jul-20 16:34N 39°12' W 076°35'0 0.0
2014-Jul-20 15:33N 39°12' W 076°35'0 0.0
2014-Jul-20 14:34N 39°12' W 076°35'0 0.0
2014-Jul-20 13:33N 39°12' W 076°35'0 0.0
2014-Jul-20 12:34N 39°12' W 076°35'0 0.0
2014-Jul-20 11:33N 39°12' W 076°35'0 0.0
2014-Jul-20 10:33N 39°12' W 076°35'0 0.0
2014-Jul-20 09:33N 39°12' W 076°35'  
Track history (hours):
 
Tides and Currents Weather Stations Pressure Air Temp Water Temp Dewpoint Dewpoint Depression Visibility Wind Speed Wind Dir Waves Ship Positions

Island Lookout

More information available from US FCC via Universal Licensing System and Coast Guard Vessel Documentation Center.

Last reported at 2014-Jul-30 08:33 UTC. Time now 2014-Jul-30 09:03 UTC.
Position N 39°07' W 076°24'.

Length 22 m; draft 2.9 m.

Type: Towing. MMSI: 367472930.

Date/timePositionNaut miles runAvg speedWind from/ knotsBaromVisibWave heightAir tempDewpointWater temp
2014-Jul-30 08:33N 39°07' W 076°24'6 6.2
2014-Jul-30 07:33N 39°01' W 076°23'6 6.3
2014-Jul-30 06:33N 38°55' W 076°25'115 6.7
2014-Jul-29 13:27N 36°60' W 076°18'  
2014-Jul-26 21:06N 36°53' W 076°20'8 5.1
2014-Jul-26 19:26N 37°01' W 076°16'126 6.0
2014-Jul-25 22:24N 39°07' W 076°24'5 6.0
2014-Jul-25 21:31N 39°11' W 076°28'3 2.7
2014-Jul-25 20:33N 39°13' W 076°31'3 3.3
2014-Jul-25 19:31N 39°13' W 076°35'0 0.0
2014-Jul-25 18:18N 39°13' W 076°35'0 0.0
2014-Jul-25 17:33N 39°13' W 076°35'0 0.0
2014-Jul-25 16:21N 39°13' W 076°35'0 0.0
2014-Jul-25 15:33N 39°13' W 076°35'0 0.0
2014-Jul-25 14:25N 39°13' W 076°35'0 0.4
2014-Jul-25 13:33N 39°12' W 076°35'0 0.0
2014-Jul-25 12:33N 39°12' W 076°35'0 0.0
2014-Jul-25 11:33N 39°12' W 076°35'0 0.0
2014-Jul-25 10:33N 39°12' W 076°35'0 0.0
2014-Jul-25 09:33N 39°12' W 076°35'0 0.0
2014-Jul-25 08:33N 39°12' W 076°35'0 0.0
2014-Jul-25 07:33N 39°12' W 076°35'0 0.0
2014-Jul-25 06:33N 39°12' W 076°35'0 0.0
2014-Jul-25 05:33N 39°12' W 076°35'0 0.0
2014-Jul-25 04:33N 39°12' W 076°35'0 0.0
2014-Jul-25 03:33N 39°12' W 076°35'0 0.0
2014-Jul-25 02:33N 39°12' W 076°35'0 0.0
2014-Jul-25 01:33N 39°12' W 076°35'0 0.0
2014-Jul-25 00:33N 39°12' W 076°35'0 0.0
2014-Jul-24 23:33N 39°12' W 076°35'0 0.0
2014-Jul-24 22:33N 39°12' W 076°35'0 0.0
2014-Jul-24 21:33N 39°12' W 076°35'0 0.1
2014-Jul-24 20:33N 39°12' W 076°35'0 0.0
2014-Jul-24 19:33N 39°12' W 076°35'0 0.0
2014-Jul-24 18:33N 39°12' W 076°35'1 0.8
2014-Jul-24 17:33N 39°13' W 076°35'3 2.9
2014-Jul-24 16:33N 39°16' W 076°34'5 4.5
2014-Jul-24 15:33N 39°13' W 076°30'5 5.5
2014-Jul-24 14:33N 39°09' W 076°25'6 5.9
2014-Jul-24 13:31N 39°03' W 076°23'6 5.8
2014-Jul-24 12:33N 38°58' W 076°24'7 6.3
2014-Jul-24 11:30N 38°51' W 076°26'95 7.3
2014-Jul-23 22:28N 37°17' W 076°11'7 7.3
2014-Jul-23 21:33N 37°10' W 076°12'7 6.9
2014-Jul-23 20:30N 37°03' W 076°14'6 6.3
2014-Jul-23 19:33N 36°59' W 076°19'7 6.5
2014-Jul-23 18:32N 36°53' W 076°20'7 5.2
2014-Jul-23 17:15N 36°46' W 076°18'39 1.2
2014-Jul-22 08:31N 36°12' W 075°55'5 4.9
2014-Jul-22 07:31N 36°16' W 075°58'36 3.3
2014-Jul-21 20:20N 36°49' W 076°17'0 1.5
2014-Jul-21 20:08N 36°49' W 076°17'4 5.8
2014-Jul-21 19:28N 36°52' W 076°20'6 6.5
2014-Jul-21 18:29N 36°59' W 076°20'6 6.3
2014-Jul-21 17:33N 37°03' W 076°14'7 6.8
2014-Jul-21 16:32N 37°10' W 076°12'111 6.1
2014-Jul-20 22:28N 39°00' W 076°23'6 6.3
2014-Jul-20 21:30N 39°06' W 076°24'5 5.6
2014-Jul-20 20:33N 39°11' W 076°27'6 5.8
2014-Jul-20 19:33N 39°13' W 076°34'1 1.2
2014-Jul-20 18:34N 39°12' W 076°35'0 0.0
2014-Jul-20 17:33N 39°12' W 076°35'0 0.0
2014-Jul-20 16:34N 39°12' W 076°35'0 0.0
2014-Jul-20 15:33N 39°12' W 076°35'0 0.0
2014-Jul-20 14:34N 39°12' W 076°35'0 0.0
2014-Jul-20 13:33N 39°12' W 076°35'0 0.0
2014-Jul-20 12:34N 39°12' W 076°35'0 0.0
2014-Jul-20 11:33N 39°12' W 076°35'0 0.0
2014-Jul-20 10:33N 39°12' W 076°35'0 0.0
2014-Jul-20 09:33N 39°12' W 076°35'  

Dump ship's entire track history